createdAt,value
2022-09-28T00:00:47.684Z,1252.8
2022-09-28T00:02:31.363Z,1254.5
2022-09-28T00:04:15.082Z,1253
2022-09-28T00:05:58.767Z,1252.9
2022-09-28T00:07:42.467Z,1247
2022-09-28T00:09:26.168Z,1244
2022-09-28T00:11:09.871Z,1241.6
2022-09-28T00:12:53.568Z,1242.1
2022-09-28T00:14:37.285Z,1241.1
2022-09-28T00:16:20.986Z,1243.2
2022-09-28T00:18:04.683Z,1244.5
2022-09-28T00:19:48.402Z,1246.2
2022-09-28T00:21:32.090Z,1244.7
2022-09-28T00:23:15.791Z,1243.6
2022-09-28T00:24:59.495Z,1239.4
2022-09-28T00:26:43.192Z,1236.1
2022-09-28T00:28:26.891Z,1237.5
2022-09-28T00:30:10.600Z,1238.3
2022-09-28T00:31:54.297Z,1240.4
2022-09-28T00:33:38.001Z,1240.4
2022-09-28T00:35:21.722Z,1232.9
2022-09-28T00:37:05.406Z,1232.5
2022-09-28T00:38:49.105Z,1234.9
2022-09-28T00:40:32.808Z,1235.2
2022-09-28T00:42:16.513Z,1238.8
2022-09-28T00:44:00.247Z,1238.5
2022-09-28T00:45:43.916Z,1235.4
2022-09-28T00:47:27.623Z,1234.3
2022-09-28T00:49:11.328Z,1230.8
2022-09-28T00:50:55.035Z,1230
2022-09-28T00:52:38.728Z,1229.3
2022-09-28T00:54:22.475Z,1227.3
2022-09-28T00:56:06.130Z,1226.9
2022-09-28T00:57:49.842Z,1223.1
2022-09-28T01:01:17.245Z,1230.9
2022-09-28T01:03:00.947Z,1233.7
2022-09-28T01:04:44.645Z,1232.4
2022-09-28T01:06:28.354Z,1234.2
2022-09-28T01:08:12.089Z,1233.2
2022-09-28T01:09:55.751Z,1231.1
2022-09-28T01:11:39.458Z,1225.2
2022-09-28T01:13:23.179Z,1226.5
2022-09-28T01:15:06.858Z,1225.4
2022-09-28T01:16:50.564Z,1227.9
2022-09-28T01:18:34.273Z,1228.3
2022-09-28T01:20:17.969Z,1226.4
2022-09-28T01:22:01.678Z,1224.5
2022-09-28T01:23:45.380Z,1224.9
2022-09-28T01:25:29.080Z,1228.3
2022-09-28T01:27:12.782Z,1227.7
2022-09-28T01:28:56.483Z,1227
2022-09-28T01:30:40.183Z,1223
2022-09-28T01:32:23.914Z,1226.2
2022-09-28T01:34:07.587Z,1227.7
2022-09-28T01:35:51.289Z,1227.5
2022-09-28T01:37:35.019Z,1227.2
2022-09-28T01:39:18.687Z,1226.5
2022-09-28T01:41:02.401Z,1226.8
2022-09-28T01:42:46.105Z,1225.9
2022-09-28T01:44:29.802Z,1223.8
2022-09-28T01:46:13.512Z,1225.1
2022-09-28T01:47:57.206Z,1228.5
2022-09-28T01:49:40.909Z,1227.7
2022-09-28T01:51:24.621Z,1231
2022-09-28T01:53:08.310Z,1233.9
2022-09-28T01:54:52.020Z,1231.1
2022-09-28T01:56:35.728Z,1233.2
2022-09-28T01:58:19.415Z,1230
2022-09-28T02:00:03.124Z,1223.1
2022-09-28T02:01:46.827Z,1221.7
2022-09-28T02:03:30.527Z,1224.1
2022-09-28T02:05:14.247Z,1226.7
2022-09-28T02:06:57.937Z,1228.4
2022-09-28T02:08:41.641Z,1230.8
2022-09-28T02:10:25.346Z,1232.2
2022-09-28T02:12:09.041Z,1234.3
2022-09-28T02:13:52.746Z,1234
2022-09-28T02:15:36.453Z,1234.4
2022-09-28T02:17:20.145Z,1234.5
2022-09-28T02:19:03.855Z,1233.4
2022-09-28T02:20:47.557Z,1235.6
2022-09-28T02:22:31.254Z,1236.5
2022-09-28T02:24:14.958Z,1239.3
2022-09-28T02:25:58.670Z,1237.4
2022-09-28T02:27:42.358Z,1239
2022-09-28T02:29:26.085Z,1242.6
2022-09-28T02:31:09.769Z,1245.9
2022-09-28T02:32:53.485Z,1262.4
2022-09-28T02:34:37.183Z,1255.7
2022-09-28T02:36:20.878Z,1248.3
2022-09-28T02:38:04.575Z,1247.4
2022-09-28T02:39:48.290Z,1248
2022-09-28T02:41:31.978Z,1253.9
2022-09-28T02:43:15.680Z,1258.8
2022-09-28T02:44:59.388Z,1256.1
2022-09-28T02:46:43.082Z,1257
2022-09-28T02:48:26.790Z,1254
2022-09-28T02:50:10.492Z,1249.1
2022-09-28T02:51:54.191Z,1246.4
2022-09-28T02:53:37.901Z,1247.2
2022-09-28T02:55:21.597Z,1251.3
2022-09-28T02:57:05.302Z,1256.2
2022-09-28T02:58:49.031Z,1255.6
2022-09-28T03:00:32.710Z,1256.7
2022-09-28T03:02:16.442Z,1260.3
2022-09-28T03:04:00.116Z,1256.9
2022-09-28T03:05:43.824Z,1257.6
2022-09-28T03:07:27.530Z,1260.4
2022-09-28T03:09:11.231Z,1262.9
2022-09-28T03:10:54.927Z,1265.4
2022-09-28T03:12:38.638Z,1258.9
2022-09-28T03:14:22.336Z,1256.2
2022-09-28T03:16:06.042Z,1254.3
2022-09-28T03:17:49.749Z,1252.3
2022-09-28T03:19:33.448Z,1255.8
2022-09-28T03:21:17.152Z,1258.1
2022-09-28T03:23:00.862Z,1258.8
2022-09-28T03:24:44.561Z,1256.5
2022-09-28T03:26:28.270Z,1258.6
2022-09-28T03:28:11.964Z,1264.3
2022-09-28T03:29:55.661Z,1263.7
2022-09-28T03:31:39.364Z,1264.7
2022-09-28T03:33:23.082Z,1261.3
2022-09-28T03:35:06.758Z,1262.4
2022-09-28T03:36:50.473Z,1263.6
2022-09-28T03:38:34.171Z,1268.2
2022-09-28T03:40:17.883Z,1268.5
2022-09-28T03:42:01.574Z,1265.8
2022-09-28T03:43:45.277Z,1266.9
2022-09-28T03:45:28.972Z,1269.1
2022-09-28T03:47:12.679Z,1270.5
2022-09-28T03:48:56.386Z,1271.9
2022-09-28T03:50:40.087Z,1275.6
2022-09-28T03:52:23.792Z,1271.7
2022-09-28T03:54:07.511Z,1271.4
2022-09-28T03:55:51.198Z,1272.3
2022-09-28T03:57:34.900Z,1271.3
2022-09-28T03:59:18.600Z,1266.7
2022-09-28T04:01:02.313Z,1263
2022-09-28T04:02:46.008Z,1263
2022-09-28T04:04:29.706Z,1267.9
2022-09-28T04:06:13.412Z,1269.5
2022-09-28T04:07:57.118Z,1268.1
2022-09-28T04:09:40.808Z,1266.2
2022-09-28T04:11:24.518Z,1267.8
2022-09-28T04:13:08.228Z,1270.8
2022-09-28T04:14:51.929Z,1271.9
2022-09-28T04:16:35.635Z,1267.1
2022-09-28T04:18:19.331Z,1266.6
2022-09-28T04:20:03.083Z,1271.1
2022-09-28T04:21:46.740Z,1271.7
2022-09-28T04:23:30.432Z,1267.2
2022-09-28T04:25:14.134Z,1267.4
2022-09-28T04:26:57.842Z,1271.9
2022-09-28T04:28:41.536Z,1272.3
2022-09-28T04:30:25.250Z,1272.8
2022-09-28T04:32:08.948Z,1276.9
2022-09-28T04:33:52.669Z,1276.3
2022-09-28T04:35:36.375Z,1274.8
2022-09-28T04:37:20.046Z,1276.8
2022-09-28T04:39:03.778Z,1278
2022-09-28T04:40:47.455Z,1276.3
2022-09-28T04:42:31.154Z,1277.4
2022-09-28T04:44:14.862Z,1277.6
2022-09-28T04:45:58.563Z,1283.1
2022-09-28T04:47:42.264Z,1280.7
2022-09-28T04:49:25.977Z,1278
2022-09-28T04:51:09.682Z,1273.1
2022-09-28T04:52:53.368Z,1285
2022-09-28T04:54:37.081Z,1314
2022-09-28T04:56:20.804Z,1307.3
2022-09-28T04:58:04.484Z,1324.9
2022-09-28T04:59:48.188Z,1359.4
2022-09-28T05:01:31.899Z,1368.1
2022-09-28T05:03:15.590Z,1373.1
2022-09-28T05:04:59.295Z,1342.6
2022-09-28T05:06:42.994Z,1338.7
2022-09-28T05:08:26.725Z,1342.9
2022-09-28T05:10:10.404Z,1351.3
2022-09-28T05:11:54.102Z,1364
2022-09-28T05:13:37.814Z,1366.1
2022-09-28T05:15:21.515Z,1371
2022-09-28T05:17:05.208Z,1619.4
2022-09-28T05:18:48.907Z,1626.9
2022-09-28T05:20:32.619Z,1530.2
2022-09-28T05:22:16.309Z,1552.8
2022-09-28T05:24:00.016Z,1552.1
2022-09-28T05:25:43.722Z,1575
2022-09-28T05:27:27.423Z,1578.1
2022-09-28T05:29:11.130Z,1596.8
2022-09-28T05:30:54.826Z,1671.5
2022-09-28T05:32:38.543Z,1696.4
2022-09-28T05:34:22.250Z,1702.9
2022-09-28T05:36:05.933Z,1687.9
2022-09-28T05:37:49.638Z,1676.4
2022-09-28T05:39:33.345Z,1674.7
2022-09-28T05:41:17.042Z,1587.4
2022-09-28T05:43:00.748Z,1551
2022-09-28T05:44:44.477Z,1552.3
2022-09-28T05:46:28.141Z,1558.9
2022-09-28T05:48:11.847Z,1567.6
2022-09-28T05:49:55.552Z,1584.6
2022-09-28T05:51:39.259Z,1611.5
2022-09-28T05:53:22.963Z,1605.6
2022-09-28T05:55:06.659Z,1605.2
2022-09-28T05:56:50.367Z,1604.5
2022-09-28T05:58:34.072Z,1597.5
2022-09-28T06:00:17.848Z,1582.1
2022-09-28T06:02:01.462Z,1575.4
2022-09-28T06:03:45.284Z,1570.7
2022-09-28T06:05:28.902Z,1565.4
2022-09-28T06:07:12.636Z,1563.2
2022-09-28T06:08:56.279Z,1563.7
2022-09-28T06:10:40.037Z,1564.5
2022-09-28T06:12:23.691Z,1567.5
2022-09-28T06:14:07.386Z,1566.4
2022-09-28T06:15:51.088Z,1567.9
2022-09-28T06:17:34.800Z,1569.6
2022-09-28T06:21:02.239Z,1569.1
2022-09-28T06:22:45.904Z,1567.5
2022-09-28T06:24:29.601Z,1567.3
2022-09-28T06:26:13.303Z,1567.9
2022-09-28T06:27:57.012Z,1568.8
2022-09-28T06:29:40.709Z,1569
2022-09-28T06:31:24.415Z,1565.3
2022-09-28T06:33:08.118Z,1563.7
2022-09-28T06:34:51.818Z,1561.3
2022-09-28T06:36:35.556Z,1558.7
2022-09-28T06:38:19.217Z,1562.5
2022-09-28T06:40:02.965Z,1563
2022-09-28T06:41:46.629Z,1563.3
2022-09-28T06:43:30.328Z,1561.5
2022-09-28T06:45:14.034Z,1564.3
2022-09-28T06:46:57.735Z,1561.7
2022-09-28T06:48:41.430Z,1560.4
2022-09-28T06:50:25.137Z,1561.7
2022-09-28T06:52:08.856Z,1562.7
2022-09-28T06:53:52.576Z,1562.3
2022-09-28T06:55:36.250Z,1563
2022-09-28T06:57:19.948Z,1568.2
2022-09-28T06:59:03.645Z,1566.7
2022-09-28T07:00:47.352Z,1565.2
2022-09-28T07:02:31.053Z,1563.7
2022-09-28T07:04:14.754Z,1566.3
2022-09-28T07:05:58.476Z,1567.2
2022-09-28T07:07:42.165Z,1569.2
2022-09-28T07:09:26.074Z,1568.8
2022-09-28T07:11:09.583Z,1565.6
2022-09-28T07:14:36.969Z,1565.3
2022-09-28T07:16:20.700Z,1564.4
2022-09-28T07:18:04.502Z,1564.2
2022-09-28T07:19:48.074Z,1567.3
2022-09-28T07:21:31.861Z,1567.7
2022-09-28T07:23:15.642Z,1570.8
2022-09-28T07:24:59.239Z,1567.4
2022-09-28T07:26:42.931Z,1564.4
2022-09-28T07:28:26.591Z,1562.3
2022-09-28T07:30:10.408Z,1559.4
2022-09-28T07:31:53.987Z,1564.4
2022-09-28T07:33:37.705Z,1566.5
2022-09-28T07:35:21.405Z,1564.7
2022-09-28T07:37:05.095Z,1558
2022-09-28T07:38:48.798Z,1550.7
2022-09-28T07:40:32.506Z,1540.3
2022-09-28T07:42:16.227Z,1537.3
2022-09-28T07:43:59.910Z,1539.2
2022-09-28T07:45:43.607Z,1540.7
2022-09-28T07:47:27.326Z,1540.3
2022-09-28T07:49:11.016Z,1540.2
2022-09-28T07:50:54.713Z,1624.1
2022-09-28T07:52:38.415Z,1921.5
2022-09-28T07:54:22.128Z,1664.7
2022-09-28T07:56:05.813Z,1613.3
2022-09-28T07:57:49.520Z,1606
2022-09-28T07:59:33.228Z,1604.9
2022-09-28T08:01:16.936Z,1610.6
2022-09-28T08:03:00.638Z,1614.7
2022-09-28T08:04:44.337Z,1612.1
2022-09-28T08:06:28.044Z,1602.5
2022-09-28T08:08:11.747Z,1594.5
2022-09-28T08:09:55.448Z,1594.2
2022-09-28T08:11:39.148Z,1590.8
2022-09-28T08:13:22.851Z,1589.3
2022-09-28T08:15:06.546Z,1585.8
2022-09-28T08:16:50.272Z,1582.9
2022-09-28T08:18:33.962Z,1579.9
2022-09-28T08:20:17.655Z,1574.9
2022-09-28T08:22:01.358Z,1575.9
2022-09-28T08:23:45.055Z,1586.6
2022-09-28T08:25:28.768Z,1594.9
2022-09-28T08:27:12.462Z,1595.5
2022-09-28T08:28:56.159Z,1593.5
2022-09-28T08:30:39.861Z,1581.3
2022-09-28T08:32:23.570Z,1570.3
2022-09-28T08:34:07.271Z,1568.1
2022-09-28T08:35:50.975Z,1567.5
2022-09-28T08:37:34.678Z,1557.8
2022-09-28T08:39:18.385Z,1548.7
2022-09-28T08:41:02.078Z,1542.6
2022-09-28T08:42:45.780Z,1544.3
2022-09-28T08:44:29.501Z,1537.4
2022-09-28T08:46:13.191Z,1535
2022-09-28T08:47:56.887Z,1536.1
2022-09-28T08:49:40.660Z,1539.1
2022-09-28T08:51:24.303Z,1540
2022-09-28T08:53:07.997Z,1535.3
2022-09-28T08:54:51.723Z,1529.2
2022-09-28T08:56:35.407Z,1526.8
2022-09-28T08:58:19.107Z,1517.3
2022-09-28T09:00:02.812Z,1524
2022-09-28T09:01:46.511Z,1527.7
2022-09-28T09:03:30.219Z,1526
2022-09-28T09:05:13.919Z,1527.3
2022-09-28T09:06:57.622Z,1526.5
2022-09-28T09:08:41.318Z,1529
2022-09-28T09:10:25.022Z,1530.4
2022-09-28T09:12:08.766Z,1523.9
2022-09-28T09:13:52.437Z,1532.2
2022-09-28T09:15:36.155Z,1534.6
2022-09-28T09:17:19.844Z,1526.2
2022-09-28T09:19:03.541Z,1520.4
2022-09-28T09:20:47.242Z,1524.7
2022-09-28T09:22:30.940Z,1523.3
2022-09-28T09:24:14.650Z,1519.3
2022-09-28T09:25:58.361Z,1520.4
2022-09-28T09:27:42.072Z,1513.9
2022-09-28T09:29:25.757Z,1513.3
2022-09-28T09:31:09.459Z,1513.8
2022-09-28T09:32:53.164Z,1516.1
2022-09-28T09:34:36.891Z,1515.5
2022-09-28T09:36:20.560Z,1512.3
2022-09-28T09:38:04.298Z,1510.3
2022-09-28T09:39:47.971Z,1513.3
2022-09-28T09:41:31.670Z,1511.6
2022-09-28T09:43:15.377Z,1512.2
2022-09-28T09:44:59.081Z,1519.6
2022-09-28T09:46:42.797Z,1550.2
2022-09-28T09:48:26.477Z,1526.6
2022-09-28T09:50:10.181Z,1517.8
2022-09-28T09:51:53.884Z,1514.3
2022-09-28T09:53:37.587Z,1510.2
2022-09-28T09:55:21.289Z,1506.4
2022-09-28T09:57:05.001Z,1504.3
2022-09-28T09:58:48.699Z,1504.1
2022-09-28T10:00:32.396Z,1498.7
2022-09-28T10:02:16.097Z,1495.5
2022-09-28T10:03:59.807Z,1487.8
2022-09-28T10:05:43.498Z,1485.3
2022-09-28T10:07:27.244Z,1492.7
2022-09-28T10:09:10.914Z,1606.5
2022-09-28T10:10:54.608Z,1675.8
2022-09-28T10:12:38.309Z,1739.7
2022-09-28T10:14:22.019Z,1743.5
2022-09-28T10:16:05.713Z,1732.2
2022-09-28T10:17:49.419Z,1719.6
2022-09-28T10:19:33.120Z,1716.3
2022-09-28T10:21:16.844Z,1713
2022-09-28T10:23:00.534Z,1718.1
2022-09-28T10:24:44.222Z,1734
2022-09-28T10:26:27.932Z,1742.2
2022-09-28T10:28:11.634Z,1753.9
2022-09-28T10:29:55.331Z,1765.7
2022-09-28T10:31:39.035Z,1782.2
2022-09-28T10:33:22.737Z,1790.9
2022-09-28T10:35:06.436Z,1789.7
2022-09-28T10:36:50.141Z,1786.7
2022-09-28T10:38:33.848Z,1783.2
2022-09-28T10:40:17.549Z,1777
2022-09-28T10:42:01.260Z,1779.2
2022-09-28T10:43:44.958Z,1772.6
2022-09-28T10:45:28.661Z,1765.8
2022-09-28T10:47:12.364Z,1766.2
2022-09-28T10:48:56.059Z,1761.3
2022-09-28T10:50:39.762Z,1752.2
2022-09-28T10:52:23.506Z,1749.8
2022-09-28T10:54:07.165Z,1741.7
2022-09-28T10:55:50.863Z,1740.7
2022-09-28T10:57:34.580Z,1735
2022-09-28T10:59:18.269Z,1730.1
2022-09-28T11:01:01.983Z,1724.2
2022-09-28T11:02:45.678Z,1717.4
2022-09-28T11:04:29.385Z,1712.5
2022-09-28T11:06:13.120Z,1709.1
2022-09-28T11:07:56.788Z,1708.4
2022-09-28T11:09:40.499Z,1691.6
2022-09-28T11:11:24.262Z,1671.7
2022-09-28T11:13:07.892Z,1673
2022-09-28T11:14:51.605Z,1669.1
2022-09-28T11:16:35.307Z,1666.9
2022-09-28T11:18:19.008Z,1668.6
2022-09-28T11:20:02.799Z,1664.9
2022-09-28T11:21:46.439Z,1655.6
2022-09-28T11:23:30.145Z,1647.3
2022-09-28T11:25:13.817Z,1645.3
2022-09-28T11:26:57.521Z,1638.8
2022-09-28T11:28:41.214Z,1637.2
2022-09-28T11:30:24.914Z,1649
2022-09-28T11:32:08.618Z,1660
2022-09-28T11:33:52.375Z,1657.7
2022-09-28T11:35:36.023Z,1653.2
2022-09-28T11:37:19.729Z,1630.1
2022-09-28T11:39:03.468Z,1623.1
2022-09-28T11:40:47.144Z,1619.4
2022-09-28T11:42:30.844Z,1620.3
2022-09-28T11:44:14.540Z,1616.8
2022-09-28T11:45:58.287Z,1613.5
2022-09-28T11:47:41.985Z,1616.5
2022-09-28T11:49:25.644Z,1616.2
2022-09-28T11:51:09.348Z,1614.8
2022-09-28T11:52:53.040Z,1604
2022-09-28T11:54:36.747Z,1585.2
2022-09-28T11:56:20.450Z,1538.3
2022-09-28T11:58:04.154Z,1504.5
2022-09-28T11:59:47.859Z,1494.9
2022-09-28T12:01:31.557Z,1489.9
2022-09-28T12:03:15.264Z,1487.4
2022-09-28T12:04:58.964Z,1483.5
2022-09-28T12:06:42.689Z,1481.2
2022-09-28T12:08:26.368Z,1472.3
2022-09-28T12:10:10.081Z,1462.6
2022-09-28T12:11:53.772Z,1453.4
2022-09-28T12:13:37.478Z,1444.3
2022-09-28T12:15:21.179Z,1436.2
2022-09-28T12:17:04.884Z,1427.2
2022-09-28T12:20:32.288Z,1416.1
2022-09-28T12:22:15.997Z,1413.3
2022-09-28T12:23:59.695Z,1410.8
2022-09-28T12:25:43.394Z,1404.8
2022-09-28T12:27:27.103Z,1396.5
2022-09-28T12:29:10.802Z,1391.4
2022-09-28T12:30:54.508Z,1387.6
2022-09-28T12:32:38.200Z,1377.5
2022-09-28T12:34:21.911Z,1373.8
2022-09-28T12:36:05.612Z,1366.2
2022-09-28T12:37:49.313Z,1359.7
2022-09-28T12:39:33.015Z,1359.9
2022-09-28T12:41:16.721Z,1356.9
2022-09-28T12:43:00.448Z,1350.3
2022-09-28T12:44:44.121Z,1348
2022-09-28T12:46:27.827Z,1343.6
2022-09-28T12:48:11.533Z,1338.4
2022-09-28T12:49:55.229Z,1336.9
2022-09-28T12:51:38.927Z,1339.1
2022-09-28T12:53:22.641Z,1334.9
2022-09-28T12:55:06.335Z,1322.7
2022-09-28T12:56:50.048Z,1318
2022-09-28T12:58:33.747Z,1317.4
2022-09-28T13:00:17.440Z,1318.8
2022-09-28T13:02:01.184Z,1316.3
2022-09-28T13:03:44.855Z,1312.8
2022-09-28T13:05:28.556Z,1308.3
2022-09-28T13:07:12.260Z,1306
2022-09-28T13:08:55.961Z,1304.6
2022-09-28T13:10:39.660Z,1300.7
2022-09-28T13:12:23.372Z,1297.9
2022-09-28T13:14:07.066Z,1292.5
2022-09-28T13:15:50.772Z,1289.7
2022-09-28T13:17:34.478Z,1284.4
2022-09-28T13:19:18.165Z,1282.5
2022-09-28T13:21:01.879Z,1277
2022-09-28T13:22:45.578Z,1272.6
2022-09-28T13:24:29.280Z,1268.1
2022-09-28T13:26:12.978Z,1260.3
2022-09-28T13:27:56.692Z,1257.2
2022-09-28T13:29:40.389Z,1257
2022-09-28T13:31:24.096Z,1253.5
2022-09-28T13:33:07.832Z,1249.7
2022-09-28T13:34:51.498Z,1244.3
2022-09-28T13:36:35.206Z,1239
2022-09-28T13:38:18.896Z,1236
2022-09-28T13:40:02.607Z,1236.7
2022-09-28T13:41:46.313Z,1236.8
2022-09-28T13:43:30.013Z,1235.5
2022-09-28T13:45:13.710Z,1237.2
2022-09-28T13:46:57.416Z,1235.6
2022-09-28T13:48:41.113Z,1233.1
2022-09-28T13:50:24.822Z,1234
2022-09-28T13:52:08.520Z,1233.4
2022-09-28T13:53:52.207Z,1231.9
2022-09-28T13:55:35.915Z,1232.4
2022-09-28T13:57:19.618Z,1230.4
2022-09-28T13:59:03.326Z,1226.4
2022-09-28T14:00:47.019Z,1219.4
2022-09-28T14:02:30.726Z,1219.7
2022-09-28T14:04:14.425Z,1221.4
2022-09-28T14:05:58.148Z,1222.2
2022-09-28T14:07:41.833Z,1221.1
2022-09-28T14:09:25.561Z,1225.8
2022-09-28T14:11:09.242Z,1230.1
2022-09-28T14:12:52.935Z,1228.4
2022-09-28T14:14:36.647Z,1228.8
2022-09-28T14:16:20.348Z,1226.6
2022-09-28T14:18:04.045Z,1219.4
2022-09-28T14:19:47.748Z,1214.4
2022-09-28T14:21:31.452Z,1211.7
2022-09-28T14:23:15.152Z,1207.9
2022-09-28T14:24:58.848Z,1204.2
2022-09-28T14:26:42.583Z,1202.4
2022-09-28T14:28:26.260Z,1194.1
2022-09-28T14:30:09.967Z,1190.3
2022-09-28T14:31:53.663Z,1186.3
2022-09-28T14:33:37.371Z,1182.1
2022-09-28T14:35:21.108Z,1238.2
2022-09-28T14:37:04.766Z,1421.4
2022-09-28T14:38:48.500Z,1407.5
2022-09-28T14:40:32.182Z,1310.8
2022-09-28T14:42:15.871Z,1280.5
2022-09-28T14:43:59.577Z,1242.5
2022-09-28T14:45:43.329Z,1233.8
2022-09-28T14:47:26.980Z,1230.1
2022-09-28T14:49:10.681Z,1227.3
2022-09-28T14:50:54.386Z,1225.3
2022-09-28T14:52:38.091Z,1228.1
2022-09-28T14:54:21.794Z,1236.3
2022-09-28T14:56:05.498Z,1236.8
2022-09-28T14:57:49.208Z,1231.8
2022-09-28T14:59:32.905Z,1225.5
2022-09-28T15:01:16.600Z,1218.3
2022-09-28T15:03:00.310Z,1213.3
2022-09-28T15:04:44.013Z,1214.1
2022-09-28T15:06:27.703Z,1211.9
2022-09-28T15:08:11.412Z,1209.4
2022-09-28T15:09:55.118Z,1207.7
2022-09-28T15:11:38.813Z,1211.4
2022-09-28T15:13:22.526Z,1212.5
2022-09-28T15:15:06.222Z,1210.7
2022-09-28T15:16:49.922Z,1203.2
2022-09-28T15:20:17.327Z,1194.5
2022-09-28T15:22:01.026Z,1189.2
2022-09-28T15:23:44.734Z,1185.2
2022-09-28T15:25:28.433Z,1177.5
2022-09-28T15:27:12.140Z,1171.4
2022-09-28T15:28:55.853Z,1190.5
2022-09-28T15:30:39.537Z,1223.1
2022-09-28T15:32:23.244Z,1216.8
2022-09-28T15:34:06.942Z,1192.9
2022-09-28T15:35:50.640Z,1177.9
2022-09-28T15:37:34.352Z,1163.1
2022-09-28T15:39:18.051Z,1160.1
2022-09-28T15:41:01.767Z,1155.8
2022-09-28T15:42:45.445Z,1190.1
2022-09-28T15:44:29.149Z,1256.1
2022-09-28T15:47:56.564Z,1263
2022-09-28T15:49:40.260Z,1242.9
2022-09-28T15:51:23.979Z,1245.6
2022-09-28T15:53:07.676Z,1237.6
2022-09-28T15:54:51.365Z,1223.4
2022-09-28T15:56:35.068Z,1214.1
2022-09-28T15:58:18.785Z,1205.2
2022-09-28T16:00:02.472Z,1200.2
2022-09-28T16:01:46.187Z,1197.8
2022-09-28T16:03:29.879Z,1193.4
2022-09-28T16:05:13.570Z,1186.6
2022-09-28T16:06:57.279Z,1181.1
2022-09-28T16:08:40.984Z,1175.2
2022-09-28T16:10:24.715Z,1171.4
2022-09-28T16:12:08.387Z,1173.7
2022-09-28T16:13:52.089Z,1177
2022-09-28T16:15:35.796Z,1182.3
2022-09-28T16:17:19.501Z,1191.2
2022-09-28T16:19:03.191Z,1195.1
2022-09-28T16:20:46.906Z,1200.2
2022-09-28T16:22:30.600Z,1204.4
2022-09-28T16:24:14.295Z,1209.5
2022-09-28T16:25:58.003Z,1211
2022-09-28T16:27:41.707Z,1225.2
2022-09-28T16:29:25.409Z,1229
2022-09-28T16:31:09.106Z,1224.6
2022-09-28T16:32:52.813Z,1222.8
2022-09-28T16:34:36.516Z,1219.1
2022-09-28T16:36:20.204Z,1209.2
2022-09-28T16:38:03.917Z,1207.2
2022-09-28T16:39:47.613Z,1209.7
2022-09-28T16:41:31.313Z,1209.9
2022-09-28T16:43:15.018Z,1211.1
2022-09-28T16:44:58.717Z,1213.5
2022-09-28T16:46:42.426Z,1213.3
2022-09-28T16:48:26.125Z,1208.8
2022-09-28T16:50:09.827Z,1202.4
2022-09-28T16:51:53.531Z,1196.4
2022-09-28T16:53:37.229Z,1190.3
2022-09-28T16:55:20.933Z,1187.1
2022-09-28T16:57:04.636Z,1181.9
2022-09-28T16:58:48.335Z,1180.8
2022-09-28T17:00:32.037Z,1181.3
2022-09-28T17:02:15.750Z,1179.7
2022-09-28T17:03:59.439Z,1176
2022-09-28T17:05:43.135Z,1175.4
2022-09-28T17:07:26.848Z,1172.4
2022-09-28T17:09:10.577Z,1170.6
2022-09-28T17:10:54.244Z,1172
2022-09-28T17:12:38.024Z,1173.8
2022-09-28T17:14:21.802Z,1173.3
2022-09-28T17:16:05.359Z,1185.7
2022-09-28T17:17:49.201Z,1198.5
2022-09-28T17:19:32.848Z,1206.5
2022-09-28T17:21:16.567Z,1209.4
2022-09-28T17:23:00.299Z,1212.7
2022-09-28T17:24:43.939Z,1213.4
2022-09-28T17:26:27.719Z,1211.2
2022-09-28T17:28:11.423Z,1209.5
2022-09-28T17:29:55.128Z,1209.6
2022-09-28T17:31:38.683Z,1208
2022-09-28T17:33:22.525Z,1207
2022-09-28T17:35:06.088Z,1202.3
2022-09-28T17:36:49.922Z,1202.7
2022-09-28T17:38:33.635Z,1221.1
2022-09-28T17:40:17.329Z,1210.7
2022-09-28T17:42:00.972Z,1205.4
2022-09-28T17:43:44.671Z,1208.2
2022-09-28T17:45:28.442Z,1212.2
2022-09-28T17:47:12.141Z,1227.4
2022-09-28T17:48:55.803Z,1492.7
2022-09-28T17:50:39.563Z,1529.6
2022-09-28T17:52:23.244Z,1520.7
2022-09-28T17:54:06.980Z,1402.3
2022-09-28T17:55:50.686Z,1313.2
2022-09-28T17:57:34.359Z,1353.1
2022-09-28T17:59:18.076Z,1471.3
2022-09-28T18:01:01.703Z,1465.2
2022-09-28T18:02:45.308Z,1439
2022-09-28T18:04:29.019Z,1425.7
2022-09-28T18:06:12.873Z,1425.6
2022-09-28T18:07:56.486Z,1414.5
2022-09-28T18:09:40.261Z,1412.3
2022-09-28T18:11:23.990Z,1419.6
2022-09-28T18:13:07.682Z,1428.4
2022-09-28T18:14:51.364Z,1416.1
2022-09-28T18:16:35.064Z,1409.9
2022-09-28T18:18:18.795Z,1400.1
2022-09-28T18:20:02.351Z,1397.8
2022-09-28T18:21:46.198Z,1395.7
2022-09-28T18:23:29.885Z,1395
2022-09-28T18:25:13.594Z,1390.5
2022-09-28T18:26:57.312Z,1386.8
2022-09-28T18:28:40.868Z,1383.6
2022-09-28T18:30:24.720Z,1382.9
2022-09-28T18:32:08.410Z,1377.8
2022-09-28T18:33:52.119Z,1372.8
2022-09-28T18:35:35.826Z,1370.9
2022-09-28T18:37:19.519Z,1368.6
2022-09-28T18:39:03.260Z,1363.9
2022-09-28T18:40:46.914Z,1357.8
2022-09-28T18:42:30.596Z,1369.3
2022-09-28T18:44:14.312Z,1400.1
2022-09-28T18:45:58.012Z,1389.1
2022-09-28T18:47:41.718Z,1377.2
2022-09-28T18:49:25.438Z,1357.2
2022-09-28T18:51:09.100Z,1336.7
2022-09-28T18:52:52.846Z,1316.3
2022-09-28T18:54:36.528Z,1310.5
2022-09-28T18:56:20.222Z,1311.2
2022-09-28T18:58:03.888Z,1306.3
2022-09-28T18:59:47.629Z,1299.2
2022-09-28T19:01:31.189Z,1295.5
2022-09-28T19:03:15.038Z,1295.2
2022-09-28T19:04:58.755Z,1293.7
2022-09-28T19:06:42.395Z,1289.7
2022-09-28T19:08:26.158Z,1285.2
2022-09-28T19:10:09.828Z,1278.4
2022-09-28T19:11:53.545Z,1271.8
2022-09-28T19:13:37.274Z,1269.3
2022-09-28T19:15:20.937Z,1267.6
2022-09-28T19:17:04.654Z,1263.2
2022-09-28T19:18:48.370Z,1255
2022-09-28T19:20:32.064Z,1252.3
2022-09-28T19:22:15.763Z,1257
2022-09-28T19:23:59.472Z,1258.7
2022-09-28T19:25:43.165Z,1258.6
2022-09-28T19:27:26.848Z,1254.7
2022-09-28T19:29:10.582Z,1253.1
2022-09-28T19:30:54.119Z,1249.6
2022-09-28T19:32:37.994Z,1251.1
2022-09-28T19:34:21.551Z,1496.6
2022-09-28T19:36:05.394Z,1518.1
2022-09-28T19:37:49.073Z,1449.6
2022-09-28T19:39:32.769Z,1405.9
2022-09-28T19:41:16.499Z,1394.2
2022-09-28T19:43:00.178Z,1387.3
2022-09-28T19:44:43.895Z,1364.7
2022-09-28T19:46:27.596Z,1348.9
2022-09-28T19:48:11.296Z,1343.2
2022-09-28T19:49:54.984Z,1344.2
2022-09-28T19:51:38.707Z,1338.7
2022-09-28T19:53:22.410Z,1338.7
2022-09-28T19:55:06.102Z,1339.1
2022-09-28T19:56:49.808Z,1336.5
2022-09-28T19:58:33.490Z,1339.8
2022-09-28T20:00:17.229Z,1343.5
2022-09-28T20:02:00.929Z,1341.5
2022-09-28T20:03:44.633Z,1342.6
2022-09-28T20:05:28.314Z,1346
2022-09-28T20:07:11.966Z,1349.4
2022-09-28T20:08:55.722Z,1350.3
2022-09-28T20:10:39.451Z,1347.3
2022-09-28T20:12:23.132Z,1338.8
2022-09-28T20:14:06.842Z,1301.7
2022-09-28T20:15:50.531Z,1263.3
2022-09-28T20:17:34.094Z,1253
2022-09-28T20:19:17.921Z,1224.2
2022-09-28T20:21:01.488Z,1183.2
2022-09-28T20:22:45.355Z,1176.3
2022-09-28T20:24:29.052Z,1170.7
2022-09-28T20:26:12.760Z,1173.8
2022-09-28T20:27:56.296Z,1175.6
2022-09-28T20:29:40.146Z,1168.5
2022-09-28T20:31:23.849Z,1173.5
2022-09-28T20:33:07.544Z,1174.9
2022-09-28T20:34:51.237Z,1172.7
2022-09-28T20:36:34.963Z,1170
2022-09-28T20:38:18.643Z,1167.7
2022-09-28T20:40:02.334Z,1168.6
2022-09-28T20:41:45.985Z,1172.7
2022-09-28T20:43:29.644Z,1168.9
2022-09-28T20:45:13.318Z,1166.3
2022-09-28T20:46:57.225Z,1160.4
2022-09-28T20:48:40.856Z,1153.7
2022-09-28T20:50:24.561Z,1152.6
2022-09-28T20:52:08.292Z,1153.7
2022-09-28T20:53:51.991Z,1153
2022-09-28T20:55:35.671Z,1151.2
2022-09-28T20:57:19.378Z,1149.1
2022-09-28T20:59:02.932Z,1145.2
2022-09-28T21:00:46.774Z,1144.7
2022-09-28T21:02:30.497Z,1144.3
2022-09-28T21:04:14.193Z,1144.1
2022-09-28T21:05:57.891Z,1144.5
2022-09-28T21:07:41.440Z,1147.4
2022-09-28T21:09:25.298Z,1150.4
2022-09-28T21:11:09.003Z,1150.4
2022-09-28T21:12:52.694Z,1149.8
2022-09-28T21:14:36.387Z,1148.9
2022-09-28T21:16:19.953Z,1149.2
2022-09-28T21:18:03.799Z,1146.4
2022-09-28T21:19:47.510Z,1153.6
2022-09-28T21:21:31.215Z,1154.4
2022-09-28T21:23:14.933Z,1152.3
2022-09-28T21:24:58.590Z,1151.9
2022-09-28T21:26:42.307Z,1153.3
2022-09-28T21:28:26.035Z,1151.1
2022-09-28T21:30:09.723Z,1148.8
2022-09-28T21:31:53.274Z,1145.6
2022-09-28T21:33:37.109Z,1142.6
2022-09-28T21:35:20.815Z,1134.1
2022-09-28T21:37:04.501Z,1126.1
2022-09-28T21:38:48.222Z,1125.5
2022-09-28T21:40:31.942Z,1123.9
2022-09-28T21:42:15.624Z,1123.2
2022-09-28T21:43:59.318Z,1117.3
2022-09-28T21:45:43.043Z,1117.2
2022-09-28T21:47:26.729Z,1116.8
2022-09-28T21:49:10.448Z,1114.6
2022-09-28T21:50:54.100Z,1106.4